Time;durP1;ratioP1;P1;durP2;ratioP2;P2;SDS_P1;SDS_P2;PMS_P1;PMS_P2;Temp;Humidity;BMP_temperature;BMP_pressure;BME280_temperature;BME280_humidity;BME280_pressure;Samples;Min_cycle;Max_cycle;Signal;HPM_P1;HPM_P2
2023/12/27 00:01:24;;;;;;;6.13;4.17;;;10.00;74.70;;;10.05;50.84;95274.66;5008364;28;20858;-57
2023/12/27 00:03:51;;;;;;;6.93;4.17;;;9.90;75.90;;;10.03;50.81;95273.97;5008490;28;20460;-57
2023/12/27 00:06:19;;;;;;;5.20;4.20;;;9.90;76.10;;;10.01;50.70;95268.00;5004291;28;20466;-56
2023/12/27 00:08:48;;;;;;;9.63;4.00;;;9.90;76.30;;;9.98;50.81;95271.72;5008481;28;20957;-56
2023/12/27 00:11:18;;;;;;;8.13;4.20;;;9.90;76.20;;;9.97;51.00;95270.03;5007655;28;20478;-57
2023/12/27 00:13:45;;;;;;;8.67;3.80;;;9.90;76.40;;;9.95;50.80;95271.97;5008565;28;20517;-57
2023/12/27 00:16:12;;;;;;;4.97;3.70;;;9.80;76.40;;;9.92;51.04;95282.72;5007577;28;20505;-57
2023/12/27 00:18:40;;;;;;;9.17;3.60;;;9.80;76.50;;;9.89;50.98;95280.34;5011844;28;20453;-58
2023/12/27 00:21:07;;;;;;;6.30;3.47;;;9.80;76.50;;;9.85;51.24;95287.66;5012717;28;20547;-57
2023/12/27 00:23:34;;;;;;;9.20;4.30;;;9.80;76.60;;;9.82;51.32;95292.31;5012406;28;20461;-57
2023/12/27 00:26:03;;;;;;;10.90;4.33;;;9.70;76.40;;;9.79;51.31;95298.66;5011365;28;20482;-56
2023/12/27 00:28:31;;;;;;;7.53;4.00;;;9.70;76.70;;;9.77;51.40;95304.97;5012659;28;20537;-57
2023/12/27 00:30:58;;;;;;;7.97;3.80;;;9.70;76.60;;;9.76;51.64;95301.53;5008218;28;20469;-57
2023/12/27 00:33:25;;;;;;;13.07;3.77;;;9.70;77.40;;;9.77;51.60;95310.25;5012492;28;20647;-58
2023/12/27 00:35:52;;;;;;;5.50;4.20;;;9.70;77.20;;;9.75;51.60;95306.91;5011439;28;21053;-56
2023/12/27 00:38:20;;;;;;;7.60;4.63;;;9.70;77.50;;;9.75;51.85;95314.78;5012289;28;20465;-58
2023/12/27 00:40:47;;;;;;;7.13;4.47;;;9.60;77.90;;;9.75;51.72;95312.16;5011527;28;20581;-56
2023/12/27 00:43:16;;;;;;;7.40;3.80;;;9.60;77.90;;;9.72;51.84;95312.41;5011923;28;20457;-57
2023/12/27 00:45:43;;;;;;;8.93;4.37;;;9.60;78.00;;;9.69;51.82;95308.22;5005536;28;20477;-59
2023/12/27 00:48:10;;;;;;;6.70;4.20;;;9.60;78.30;;;9.67;52.01;95320.66;5010551;28;20503;-58
2023/12/27 00:50:38;;;;;;;6.70;4.13;;;9.60;78.50;;;9.65;52.31;95319.94;5011761;28;20588;-57
2023/12/27 00:53:05;;;;;;;8.73;4.50;;;9.60;78.80;;;9.64;51.88;95313.84;5012128;28;20465;-58
2023/12/27 00:55:32;;;;;;;6.87;3.93;;;9.60;78.70;;;9.65;52.50;95315.53;5011270;28;20889;-57
2023/12/27 00:58:00;;;;;;;8.63;4.30;;;9.50;79.30;;;9.66;52.44;95322.44;5011782;28;20461;-58
2023/12/27 01:00:29;;;;;;;10.63;4.10;;;9.50;79.00;;;9.67;52.14;95331.16;5011629;28;20473;-57
2023/12/27 01:02:56;;;;;;;6.83;4.30;;;9.60;79.30;;;9.67;52.48;95345.13;5011854;28;20536;-58
2023/12/27 01:05:24;;;;;;;8.87;3.87;;;9.50;79.30;;;9.67;52.65;95339.88;5011578;28;20834;-58
2023/12/27 01:07:51;;;;;;;5.53;4.40;;;9.60;80.10;;;9.68;52.44;95338.91;5011938;28;20515;-57
2023/12/27 01:10:18;;;;;;;9.90;4.37;;;9.60;79.90;;;9.69;52.51;95347.63;5011409;28;20481;-57
2023/12/27 01:12:46;;;;;;;15.17;4.50;;;9.60;79.90;;;9.71;52.78;95347.50;5011758;28;20959;-57
2023/12/27 01:15:13;;;;;;;9.03;4.37;;;9.60;79.90;;;9.71;52.53;95342.25;5011049;28;20493;-57
2023/12/27 01:17:42;;;;;;;9.03;4.40;;;9.60;79.80;;;9.72;52.85;95343.94;5011482;28;20820;-58
2023/12/27 01:20:11;;;;;;;13.50;4.50;;;9.60;80.50;;;9.73;52.84;95351.69;5011505;28;20516;-58
2023/12/27 01:22:38;;;;;;;8.13;5.20;;;9.60;80.50;;;9.73;52.48;95343.81;5011500;28;20477;-57
2023/12/27 01:25:06;;;;;;;8.23;4.53;;;9.60;80.10;;;9.73;52.64;95350.84;5010643;28;21181;-57
2023/12/27 01:27:33;;;;;;;9.10;4.10;;;9.60;80.50;;;9.74;52.76;95355.97;5010550;28;20549;-57
2023/12/27 01:30:01;;;;;;;6.77;3.97;;;9.60;80.50;;;9.75;52.73;95356.81;5009874;28;20573;-56
2023/12/27 01:32:28;;;;;;;6.40;4.80;;;9.60;80.50;;;9.76;53.04;95348.81;5011659;28;20480;-57
2023/12/27 01:34:56;;;;;;;14.50;4.77;;;9.60;81.10;;;9.78;52.69;95348.69;5010373;28;21131;-56
2023/12/27 01:37:24;;;;;;;12.13;5.10;;;9.70;81.00;;;9.80;52.88;95359.91;5010877;28;20453;-57
2023/12/27 01:39:51;;;;;;;6.77;4.07;;;9.70;80.80;;;9.79;52.96;95348.56;5010388;28;20524;-57
2023/12/27 01:42:19;;;;;;;8.70;4.87;;;9.70;81.30;;;9.82;52.81;95348.31;5011038;28;20446;-57
2023/12/27 01:44:46;;;;;;;8.77;4.50;;;9.70;81.20;;;9.84;52.95;95369.22;5010466;28;20561;-56
2023/12/27 01:47:13;;;;;;;11.50;5.97;;;9.70;81.20;;;9.82;52.97;95371.97;5010507;28;20457;-58
2023/12/27 01:49:41;;;;;;;10.40;5.33;;;9.70;81.40;;;9.79;52.87;95368.72;5010787;28;20575;-58
2023/12/27 01:52:10;;;;;;;14.63;4.80;;;9.70;81.00;;;9.76;52.81;95364.56;5010429;28;20453;-57
2023/12/27 01:54:38;;;;;;;8.20;4.40;;;9.70;81.00;;;9.74;52.81;95374.34;5010648;28;20489;-56
2023/12/27 01:57:06;;;;;;;12.00;5.00;;;9.60;81.10;;;9.76;53.01;95382.09;5010484;28;20449;-57
2023/12/27 01:59:33;;;;;;;9.50;4.80;;;9.70;81.40;;;9.74;53.00;95368.28;5010058;28;20516;-56
2023/12/27 02:02:00;;;;;;;8.70;4.63;;;9.70;81.40;;;9.74;53.05;95369.09;5010059;28;20523;-58
2023/12/27 02:04:27;;;;;;;17.73;5.17;;;9.70;81.30;;;9.72;52.94;95375.44;5007823;28;22176;-57
2023/12/27 02:06:55;;;;;;;10.87;3.83;;;9.60;81.40;;;9.71;53.31;95373.78;5008515;28;20508;-57
2023/12/27 02:09:24;;;;;;;8.07;4.37;;;9.60;81.50;;;9.68;53.04;95370.44;5008854;28;20453;-58
2023/12/27 02:11:51;;;;;;;8.60;4.57;;;9.60;81.40;;;9.67;53.38;95374.00;5010524;28;20458;-58
2023/12/27 02:14:18;;;;;;;7.60;3.73;;;9.60;81.70;;;9.66;52.96;95371.50;5010549;28;21024;-57
2023/12/27 02:16:45;;;;;;;10.10;4.70;;;9.50;81.60;;;9.65;53.31;95373.31;5010101;28;20946;-57
2023/12/27 02:19:19;;;;;;;10.23;4.17;;;9.60;82.30;;;9.62;53.59;95381.44;5010644;28;20536;-57
2023/12/27 02:21:46;;;;;;;9.80;4.80;;;9.50;82.50;;;9.61;53.65;95392.88;5005894;28;20948;-56
2023/12/27 02:24:13;;;;;;;9.43;4.47;;;9.50;82.50;;;9.60;53.49;95372.00;5010516;28;20453;-56
2023/12/27 02:26:42;;;;;;;10.70;3.87;;;9.50;82.50;;;9.57;53.67;95361.72;5010489;28;20513;-59
2023/12/27 02:29:09;;;;;;;8.83;4.27;;;9.50;82.90;;;9.58;54.29;95352.91;5010232;28;20846;-57
2023/12/27 02:31:36;;;;;;;10.83;4.57;;;9.50;84.00;;;9.62;54.53;95357.78;5010222;28;21031;-57
2023/12/27 02:34:04;;;;;;;12.53;5.40;;;9.50;84.90;;;9.67;54.51;95358.25;5010098;28;20496;-59
2023/12/27 02:36:31;;;;;;;7.03;4.90;;;9.60;85.20;;;9.75;54.44;95364.69;5010115;28;20490;-57
2023/12/27 02:38:58;;;;;;;11.97;4.60;;;9.60;85.60;;;9.82;54.82;95353.56;5008435;28;20527;-56
2023/12/27 02:41:25;;;;;;;11.43;4.80;;;9.70;86.60;;;9.90;54.45;95363.47;5009632;28;20473;-57
2023/12/27 02:43:54;;;;;;;8.57;4.30;;;9.80;86.30;;;10.00;54.62;95368.81;5009958;28;20450;-57
2023/12/27 02:46:21;;;;;;;6.43;4.20;;;9.80;86.50;;;10.09;54.67;95365.44;5010483;28;20492;-56
2023/12/27 02:48:48;;;;;;;9.83;3.80;;;10.00;86.60;;;10.16;54.72;95369.25;5009795;28;20828;-58
2023/12/27 02:51:16;;;;;;;8.50;4.60;;;10.00;86.00;;;10.23;54.95;95366.94;5009852;28;20481;-58
2023/12/27 02:53:43;;;;;;;8.40;5.33;;;10.10;86.10;;;10.30;54.55;95378.63;5009897;28;20462;-58
2023/12/27 02:56:10;;;;;;;8.23;4.90;;;10.10;85.60;;;10.36;54.90;95375.53;5009554;28;20989;-57
2023/12/27 02:58:40;;;;;;;11.60;4.53;;;10.20;86.40;;;10.40;54.99;95379.56;5009881;28;20462;-57
2023/12/27 03:01:09;;;;;;;13.43;5.17;;;10.30;86.50;;;10.44;54.59;95379.31;5009615;28;20569;-56
2023/12/27 03:03:36;;;;;;;9.23;4.47;;;10.30;85.90;;;10.50;54.73;95384.06;5010104;28;20450;-57
2023/12/27 03:06:04;;;;;;;5.90;4.63;;;10.30;86.10;;;10.52;54.48;95388.25;5009815;28;20560;-57
2023/12/27 03:08:31;;;;;;;11.57;4.70;;;10.40;85.80;;;10.55;54.25;95385.38;5009513;28;20457;-58
2023/12/27 03:10:57;;;;;;;13.40;5.40;;;10.40;85.60;;;10.57;54.50;95388.69;5010275;28;20474;-57
2023/12/27 03:13:24;;;;;;;9.13;4.57;;;10.40;86.00;;;10.61;54.77;95393.69;5009618;28;20925;-57
2023/12/27 03:15:52;;;;;;;8.63;6.17;;;10.50;86.20;;;10.62;54.50;95385.69;5009493;28;20497;-57
2023/12/27 03:18:20;;;;;;;15.17;5.10;;;10.50;85.90;;;10.65;54.55;95403.84;5005736;28;20450;-58
2023/12/27 03:20:47;;;;;;;8.13;5.33;;;10.50;86.10;;;10.67;55.03;95398.44;5009685;28;21004;-57
2023/12/27 03:23:15;;;;;;;9.40;4.87;;;10.50;86.00;;;10.67;54.35;95394.00;5009407;28;20457;-57
2023/12/27 03:25:42;;;;;;;12.70;5.13;;;10.50;86.10;;;10.69;54.47;95407.03;5009217;28;20477;-57
2023/12/27 03:28:10;;;;;;;6.60;4.70;;;10.60;86.00;;;10.70;54.34;95412.19;5010145;28;20456;-58
2023/12/27 03:30:37;;;;;;;8.27;4.30;;;10.60;86.00;;;10.73;54.61;95419.00;5009069;28;20505;-58
2023/12/27 03:33:05;;;;;;;6.50;4.70;;;10.60;86.20;;;10.70;54.73;95420.06;5008809;28;20450;-58
2023/12/27 03:35:33;;;;;;;12.13;4.40;;;10.60;86.20;;;10.71;54.42;95411.22;5009072;28;20503;-57
2023/12/27 03:38:01;;;;;;;9.40;4.07;;;10.60;86.10;;;10.72;54.45;95418.16;5009251;28;20450;-57
2023/12/27 03:40:28;;;;;;;9.30;4.47;;;10.60;85.90;;;10.71;54.69;95415.66;5009732;28;20470;-57
2023/12/27 03:42:54;;;;;;;9.43;5.27;;;10.60;86.30;;;10.68;54.51;95414.09;5009277;28;20493;-58
2023/12/27 03:45:22;;;;;;;12.40;6.40;;;10.60;86.20;;;10.67;54.50;95417.69;5004322;28;20459;-58
2023/12/27 03:47:49;;;;;;;7.00;4.30;;;10.60;86.20;;;10.67;54.84;95417.69;5009007;28;20544;-57
2023/12/27 03:50:16;;;;;;;9.07;4.67;;;10.50;86.50;;;10.67;54.69;95409.81;5009178;28;20474;-58
2023/12/27 03:52:45;;;;;;;11.23;4.67;;;10.50;86.40;;;10.67;54.85;95404.53;5009117;28;20453;-58
2023/12/27 03:55:12;;;;;;;8.10;4.73;;;10.50;86.80;;;10.66;54.75;95413.41;5009348;28;20485;-57
2023/12/27 03:57:38;;;;;;;10.53;4.90;;;10.50;87.00;;;10.67;54.76;95430.84;5009169;28;20571;-57
2023/12/27 04:00:10;;;;;;;10.43;4.47;;;10.50;87.00;;;10.67;55.39;95417.69;5008748;28;20489;-56
2023/12/27 04:02:37;;;;;;;10.80;4.83;;;10.50;87.70;;;10.67;55.02;95430.84;5009148;28;20482;-57
2023/12/27 04:05:05;;;;;;;7.13;4.40;;;10.50;87.70;;;10.67;55.16;95428.22;5009074;28;20481;-59
2023/12/27 04:07:33;;;;;;;8.30;4.70;;;10.60;87.90;;;10.68;55.26;95424.63;5008833;28;20918;-57
2023/12/27 04:10:03;;;;;;;13.80;4.97;;;10.60;87.90;;;10.69;55.25;95442.09;5008748;28;21037;-58
2023/12/27 04:12:30;;;;;;;8.40;4.80;;;10.60;88.40;;;10.70;55.00;95448.19;5008982;28;20500;-55
2023/12/27 04:14:57;;;;;;;11.63;4.63;;;10.60;88.10;;;10.68;54.97;95450.94;5007707;28;20563;-57
2023/12/27 04:17:25;;;;;;;11.70;6.10;;;10.60;87.90;;;10.67;54.95;95451.91;5002466;28;20450;-57
2023/12/27 04:19:53;;;;;;;5.87;4.80;;;10.60;87.90;;;10.65;55.02;95459.09;5008590;28;20552;-57
2023/12/27 04:22:21;;;;;;;16.57;5.43;;;10.50;87.80;;;10.63;55.23;95461.03;5008900;28;20518;-57
2023/12/27 04:24:48;;;;;;;8.90;5.00;;;10.50;88.10;;;10.62;55.17;95458.50;5009011;28;20481;-57
2023/12/27 04:27:17;;;;;;;15.83;5.07;;;10.50;88.10;;;10.60;55.27;95458.63;5008972;28;20449;-57
2023/12/27 04:29:44;;;;;;;9.97;5.00;;;10.50;88.60;;;10.58;55.62;95463.16;5009009;28;20564;-58
2023/12/27 04:32:12;;;;;;;8.80;5.10;;;10.50;89.10;;;10.57;55.61;95458.88;5008404;28;20941;-57
2023/12/27 04:34:39;;;;;;;10.80;5.30;;;10.40;88.70;;;10.57;55.72;95466.78;5008577;28;20508;-56
2023/12/27 04:37:06;;;;;;;13.87;5.13;;;10.50;89.40;;;10.56;55.62;95463.28;5008433;28;20504;-56
2023/12/27 04:39:34;;;;;;;9.07;5.40;;;10.40;89.20;;;10.56;55.58;95470.34;5008641;28;20552;-58
2023/12/27 04:42:02;;;;;;;9.53;4.90;;;10.40;89.60;;;10.55;55.93;95463.41;5009089;28;20457;-57
2023/12/27 04:44:30;;;;;;;13.23;5.67;;;10.40;89.80;;;10.54;55.76;95457.34;5008757;28;20855;-59
2023/12/27 04:46:58;;;;;;;7.67;4.67;;;10.40;90.00;;;10.56;56.09;95454.56;5007794;28;20930;-58
2023/12/27 04:49:25;;;;;;;11.33;6.00;;;10.40;90.30;;;10.57;56.16;95448.38;5001409;28;20453;-60
2023/12/27 04:51:52;;;;;;;11.43;4.87;;;10.40;90.30;;;10.59;55.93;95462.22;5008827;28;20461;-56
2023/12/27 04:54:19;;;;;;;11.57;4.97;;;10.40;90.30;;;10.59;56.16;95454.31;5004261;28;20955;-58
2023/12/27 04:56:47;;;;;;;12.33;5.03;;;10.40;90.30;;;10.60;56.22;95458.63;5008453;28;20512;-57
2023/12/27 04:59:14;;;;;;;10.07;5.13;;;10.50;90.60;;;10.61;56.43;95468.19;5008550;28;20450;-57
2023/12/27 05:01:43;;;;;;;9.60;5.10;;;10.50;90.80;;;10.64;56.54;95467.09;5007251;28;20454;-57
2023/12/27 05:04:10;;;;;;;13.20;5.03;;;10.50;90.90;;;10.67;56.43;95472.13;5010951;28;20461;-56
2023/12/27 05:06:37;;;;;;;10.23;4.47;;;10.50;90.80;;;10.67;56.96;95475.56;5011977;28;20954;-57
2023/12/27 05:09:04;;;;;;;13.00;5.10;;;10.50;91.40;;;10.69;56.56;95471.03;5012309;28;20889;-56
2023/12/27 05:11:32;;;;;;;12.37;4.53;;;10.60;91.20;;;10.71;56.38;95471.75;5011983;28;20516;-57
2023/12/27 05:13:59;;;;;;;12.93;4.50;;;10.60;91.10;;;10.73;56.57;95477.69;5011914;28;20536;-58
2023/12/27 05:16:26;;;;;;;11.17;4.53;;;10.60;91.30;;;10.74;56.60;95468.84;5011916;28;20524;-56
2023/12/27 05:18:55;;;;;;;8.50;4.30;;;10.60;91.30;;;10.77;56.43;95478.31;5011537;28;20480;-57
2023/12/27 05:21:22;;;;;;;8.90;5.10;;;10.60;91.20;;;10.77;56.47;95497.53;5007948;28;20497;-57
2023/12/27 05:23:49;;;;;;;10.10;4.60;;;10.60;91.30;;;10.77;56.77;95494.91;5011462;28;20461;-58
2023/12/27 05:26:16;;;;;;;10.90;5.10;;;10.60;91.50;;;10.77;56.43;95505.44;5011660;28;20477;-59
2023/12/27 05:28:44;;;;;;;7.87;4.57;;;10.60;91.40;;;10.79;56.63;95507.13;5011456;28;20954;-58
2023/12/27 05:31:11;;;;;;;5.80;4.50;;;10.60;91.40;;;10.78;56.53;95501.00;5011566;28;20511;-56
2023/12/27 05:33:39;;;;;;;11.10;4.10;;;10.60;91.40;;;10.77;56.52;95505.44;5005217;28;20452;-58
2023/12/27 05:36:08;;;;;;;6.67;4.77;;;10.60;91.40;;;10.76;56.91;95511.66;5011871;28;20493;-58
2023/12/27 05:38:36;;;;;;;5.77;3.20;;;10.60;91.60;;;10.73;56.84;95514.53;5007942;28;20453;-57
2023/12/27 05:41:04;;;;;;;9.13;4.77;;;10.60;91.60;;;10.68;56.80;95510.63;5008137;28;21020;-57
2023/12/27 05:43:31;;;;;;;10.17;4.50;;;10.60;91.60;;;10.71;56.90;95526.16;5011624;28;20450;-57
2023/12/27 05:45:59;;;;;;;9.30;4.23;;;10.60;91.80;;;10.68;57.15;95535.13;5007335;28;20501;-58
2023/12/27 05:48:26;;;;;;;11.87;4.53;;;10.60;92.00;;;10.67;57.17;95536.06;5007725;28;20450;-57
2023/12/27 05:50:53;;;;;;;7.43;4.47;;;10.60;92.00;;;10.66;57.11;95550.22;5011232;28;20958;-58
2023/12/27 05:53:22;;;;;;;12.47;4.33;;;10.50;92.00;;;10.64;57.16;95551.28;5011337;28;20457;-57
2023/12/27 05:55:49;;;;;;;7.90;4.03;;;10.50;92.00;;;10.64;57.22;95551.28;5007380;28;20593;-58
2023/12/27 05:58:16;;;;;;;15.20;5.13;;;10.50;92.00;;;10.63;57.03;95552.22;5007209;28;20450;-57
2023/12/27 06:00:43;;;;;;;225.80;93.77;;;10.50;92.10;;;10.61;57.42;95554.97;5010657;28;20508;-58
2023/12/27 06:03:11;;;;;;;20.13;9.10;;;10.50;92.50;;;10.61;57.50;95556.78;5009036;28;20450;-58
2023/12/27 06:05:38;;;;;;;12.70;5.27;;;10.50;92.30;;;10.60;57.37;95555.97;5008602;28;21016;-57
2023/12/27 06:08:06;;;;;;;7.13;4.53;;;10.50;92.50;;;10.59;57.63;95565.63;5007697;28;20516;-57
2023/12/27 06:10:34;;;;;;;8.07;4.93;;;10.50;92.70;;;10.59;57.85;95559.53;5010600;28;20787;-56
2023/12/27 06:13:02;;;;;;;19.03;6.23;;;10.50;92.80;;;10.59;57.67;95570.91;5011400;28;20462;-57
2023/12/27 06:15:29;;;;;;;12.30;5.10;;;10.50;92.70;;;10.59;57.49;95570.91;5010078;28;20505;-57
2023/12/27 06:17:56;;;;;;;13.53;6.07;;;10.40;92.70;;;10.65;57.91;95569.56;5010659;28;21182;-57
2023/12/27 06:20:24;;;;;;;17.50;5.60;;;10.50;93.10;;;10.86;58.06;95571.44;5011046;28;20473;-57
2023/12/27 06:22:52;;;;;;;13.27;6.40;;;10.70;93.30;;;11.23;57.19;95566.66;5011026;28;20589;-58
2023/12/27 06:25:19;;;;;;;16.80;5.73;;;11.10;93.10;;;11.70;56.68;95568.91;5006732;28;20474;-57
2023/12/27 06:27:48;;;;;;;15.80;6.47;;;11.60;92.60;;;12.18;55.58;95570.16;5010844;28;20453;-57
2023/12/27 06:30:16;;;;;;;9.27;4.77;;;12.10;91.90;;;12.67;55.13;95570.31;5009472;28;20495;-57
2023/12/27 06:32:43;;;;;;;10.13;5.13;;;12.60;91.10;;;13.15;54.18;95574.84;5006199;28;20453;-56
2023/12/27 06:35:11;;;;;;;10.83;4.97;;;13.10;90.30;;;13.63;53.19;95578.44;5010696;28;20516;-58
2023/12/27 06:37:38;;;;;;;12.87;5.47;;;13.60;89.10;;;14.10;52.39;95567.09;5010852;28;20454;-57
2023/12/27 06:40:08;;;;;;;7.37;4.40;;;14.20;87.00;;;14.57;51.52;95580.25;5010775;28;20469;-56
2023/12/27 06:42:36;;;;;;;6.40;5.13;;;14.70;85.60;;;15.03;50.75;95572.38;5010393;28;20449;-58
2023/12/27 06:45:06;;;;;;;8.57;5.90;;;15.20;83.90;;;15.51;49.83;95575.63;5007073;28;20505;-57
2023/12/27 06:47:33;;;;;;;17.73;6.10;;;15.70;81.60;;;15.95;48.97;95586.25;5007026;28;20477;-57
2023/12/27 06:50:00;;;;;;;14.97;7.50;;;16.10;80.50;;;16.31;48.42;95589.66;5009787;28;21013;-59
2023/12/27 06:52:28;;;;;;;9.53;5.50;;;16.50;78.20;;;16.62;47.89;95590.94;5010290;28;20454;-57
2023/12/27 06:54:55;;;;;;;14.57;6.90;;;16.80;76.40;;;16.83;46.94;95598.50;5010183;28;20473;-58
2023/12/27 06:57:22;;;;;;;10.73;5.13;;;17.00;74.00;;;17.02;46.90;95606.25;5010128;28;20848;-58
2023/12/27 06:59:50;;;;;;;11.87;5.13;;;17.20;74.00;;;17.31;46.52;95609.47;5009849;28;20485;-58
2023/12/27 07:02:19;;;;;;;11.80;5.03;;;17.40;73.60;;;17.64;45.50;95606.84;5007853;28;20453;-58
2023/12/27 07:04:46;;;;;;;7.80;4.87;;;17.60;72.30;;;17.98;45.47;95613.88;5009793;28;20481;-57
2023/12/27 07:07:14;;;;;;;18.77;4.73;;;17.90;72.10;;;18.33;45.16;95622.50;5010422;28;20511;-58
2023/12/27 07:09:42;;;;;;;7.37;5.03;;;18.30;71.50;;;18.71;44.75;95636.88;5006055;28;20465;-57
2023/12/27 07:12:11;;;;;;;7.03;4.80;;;18.70;70.10;;;19.14;44.20;95649.91;5008401;28;20472;-58
2023/12/27 07:14:39;;;;;;;8.17;4.47;;;19.10;69.20;;;19.57;43.34;95661.03;5005758;28;20497;-58
2023/12/27 07:17:06;;;;;;;7.20;3.70;;;19.60;67.60;;;19.99;42.23;95659.75;5001852;28;20481;-57
2023/12/27 07:19:35;;;;;;;10.63;4.70;;;20.00;66.30;;;20.38;41.68;95656.06;5003581;28;20471;-57
2023/12/27 07:22:03;;;;;;;10.33;5.43;;;20.50;64.80;;;20.75;40.99;95665.09;5009264;28;20469;-57
2023/12/27 07:24:30;;;;;;;13.53;5.00;;;20.90;63.10;;;21.08;40.54;95658.53;5006086;28;20547;-59
2023/12/27 07:26:58;;;;;;;11.50;5.67;;;21.30;62.50;;;21.40;39.71;95680.56;5005349;28;20454;-58
2023/12/27 07:29:25;;;;;;;12.70;6.70;;;21.60;60.90;;;21.66;39.08;95680.88;5009756;28;20450;-58
2023/12/27 07:31:52;;;;;;;10.30;5.70;;;22.00;59.70;;;21.89;38.81;95677.22;5008955;28;20794;-58
2023/12/27 07:34:19;;;;;;;12.00;7.03;;;22.20;58.70;;;22.13;37.84;95669.81;5005354;28;20456;-59
2023/12/27 07:36:50;;;;;;;13.97;5.40;;;22.50;57.20;;;22.36;38.11;95672.31;5009606;28;20490;-57
2023/12/27 07:39:17;;;;;;;11.60;5.60;;;22.70;57.10;;;22.58;37.84;95667.75;5001795;28;20453;-57
2023/12/27 07:41:44;;;;;;;12.50;5.83;;;22.90;56.90;;;22.76;37.06;95667.25;5005694;28;20441;-57
2023/12/27 07:44:12;;;;;;;9.90;5.00;;;23.10;56.60;;;22.91;36.97;95664.44;5005912;28;20450;-58
2023/12/27 07:46:39;;;;;;;10.63;6.10;;;23.20;56.10;;;23.05;36.28;95662.66;5009896;28;20453;-58
2023/12/27 07:49:07;;;;;;;9.70;5.57;;;23.30;54.80;;;23.20;35.79;95670.63;5009375;28;20523;-60
2023/12/27 07:51:34;;;;;;;10.63;6.37;;;23.40;54.40;;;23.36;36.29;95662.25;5009388;28;20560;-59
2023/12/27 07:54:03;;;;;;;11.77;5.33;;;23.40;54.30;;;23.47;35.48;95685.00;5009123;28;20446;-57
2023/12/27 07:56:30;;;;;;;10.37;5.17;;;23.40;53.70;;;23.59;35.96;95698.66;5005292;28;20496;-59
2023/12/27 07:58:57;;;;;;;8.50;5.80;;;23.50;54.40;;;23.62;35.57;95691.06;5009431;28;20454;-58
2023/12/27 08:01:28;;;;;;;11.80;7.13;;;23.40;53.70;;;23.64;35.23;95677.44;5009257;28;20477;-58
2023/12/27 08:03:55;;;;;;;11.67;6.90;;;23.40;53.40;;;23.72;34.00;95684.44;5005476;28;20542;-58
2023/12/27 08:06:22;;;;;;;17.73;6.27;;;23.30;52.70;;;23.79;34.19;95688.00;5002592;28;20957;-58
2023/12/27 08:08:50;;;;;;;8.57;5.33;;;23.40;52.60;;;23.89;34.47;95693.84;5001935;28;20446;-60
2023/12/27 08:11:20;;;;;;;13.70;6.60;;;23.50;53.20;;;23.94;34.13;95704.00;5009317;28;20469;-59
2023/12/27 08:13:47;;;;;;;11.37;6.00;;;23.50;52.70;;;24.00;35.00;95708.56;5005838;28;20453;-58
2023/12/27 08:16:15;;;;;;;9.90;5.73;;;23.60;53.10;;;24.09;34.42;95703.78;5008711;28;20555;-59
2023/12/27 08:18:42;;;;;;;13.87;7.03;;;23.60;52.10;;;24.22;34.56;95701.13;5004893;28;20450;-58
2023/12/27 08:21:09;;;;;;;11.50;5.57;;;23.70;52.60;;;24.37;33.86;95702.78;5004138;28;20663;-60
2023/12/27 08:23:37;;;;;;;14.83;9.03;;;23.80;52.30;;;24.53;33.96;95707.78;5003623;28;20507;-58
2023/12/27 08:26:06;;;;;;;30.13;19.60;;;23.90;52.30;;;24.67;33.55;95714.84;5005718;28;20477;-61
2023/12/27 08:28:36;;;;;;;13.23;6.90;;;24.10;51.70;;;24.72;33.18;95706.16;5006143;28;20450;-59
2023/12/27 08:31:04;;;;;;;8.63;6.00;;;24.10;51.20;;;24.67;33.25;95714.03;5005617;28;21214;-60
2023/12/27 08:33:32;;;;;;;8.03;5.93;;;24.10;51.20;;;24.64;33.48;95720.63;5008043;28;20458;-60
2023/12/27 08:35:59;;;;;;;7.20;5.20;;;24.10;51.10;;;24.70;32.86;95729.75;5008549;28;20729;-58
2023/12/27 08:38:27;;;;;;;9.47;5.20;;;24.10;50.50;;;24.73;33.27;95723.97;5010715;28;20897;-59
2023/12/27 08:40:54;;;;;;;10.13;5.87;;;24.10;51.10;;;24.74;33.31;95722.94;5013031;28;20986;-59
2023/12/27 08:43:27;;;;;;;13.27;6.70;;;24.10;51.50;;;24.78;33.69;95734.09;5012710;28;20454;-59
2023/12/27 08:45:55;;;;;;;8.87;5.10;;;24.20;51.50;;;24.77;34.11;95737.81;5013254;28;21005;-59
2023/12/27 08:48:23;;;;;;;11.13;5.27;;;24.20;51.60;;;24.76;33.74;95749.63;5011748;28;20462;-58
2023/12/27 08:50:51;;;;;;;10.30;5.13;;;24.20;51.30;;;24.73;33.87;95747.34;5012548;28;20623;-58
2023/12/27 08:53:18;;;;;;;8.90;4.90;;;24.10;51.80;;;24.69;33.36;95757.69;5010679;28;20450;-58
2023/12/27 08:55:46;;;;;;;9.50;5.47;;;24.10;51.20;;;24.62;33.19;95751.50;5012091;28;20593;-58
2023/12/27 08:58:13;;;;;;;8.53;4.20;;;24.00;50.20;;;24.53;32.92;95751.63;5011926;28;20942;-59
2023/12/27 09:00:40;;;;;;;7.20;4.53;;;24.00;50.40;;;24.52;33.25;95752.69;5012313;28;20469;-59
2023/12/27 09:03:09;;;;;;;14.57;3.67;;;23.90;50.00;;;24.55;33.24;95742.53;5010976;28;20464;-58
2023/12/27 09:05:36;;;;;;;9.20;4.10;;;23.90;50.40;;;24.53;32.67;95738.19;5011506;28;20556;-58
2023/12/27 09:08:04;;;;;;;8.30;3.63;;;23.90;50.10;;;24.53;32.48;95746.25;5010786;28;20453;-59
2023/12/27 09:10:32;;;;;;;10.80;4.03;;;23.90;49.40;;;24.46;32.16;95741.91;5012445;28;20478;-58
2023/12/27 09:12:59;;;;;;;6.60;3.80;;;23.80;49.80;;;24.44;32.55;95744.78;5010834;28;20450;-59
2023/12/27 09:15:26;;;;;;;11.43;4.40;;;23.80;49.60;;;24.52;33.00;95741.09;5012789;28;20484;-59
2023/12/27 09:17:53;;;;;;;6.20;4.07;;;23.80;49.60;;;24.64;32.97;95733.25;5014438;28;20631;-59
2023/12/27 09:20:23;;;;;;;12.70;4.83;;;23.90;49.70;;;24.78;31.90;95726.03;5013976;28;20927;-61
2023/12/27 09:22:50;;;;;;;7.67;4.33;;;24.00;49.50;;;25.02;32.10;95725.38;5011614;28;20461;-62
2023/12/27 09:25:17;;;;;;;10.10;4.33;;;24.30;49.90;;;25.30;31.78;95726.16;5011538;28;20972;-58
2023/12/27 09:27:45;;;;;;;7.90;4.30;;;24.50;49.30;;;25.55;32.30;95720.94;5011267;28;20530;-57
2023/12/27 09:30:13;;;;;;;8.40;4.43;;;24.80;50.40;;;25.81;31.16;95725.38;5011934;28;21164;-55
2023/12/27 09:32:40;;;;;;;13.20;5.50;;;25.00;48.90;;;26.01;30.94;95725.31;5010658;28;20462;-57
2023/12/27 09:35:08;;;;;;;7.97;4.33;;;25.20;47.80;;;26.15;30.54;95709.91;5011407;28;20543;-57
2023/12/27 09:37:37;;;;;;;7.37;4.23;;;25.40;47.50;;;26.37;30.47;95709.50;5012791;28;20489;-56
2023/12/27 09:40:06;;;;;;;6.83;3.33;;;25.60;48.00;;;26.69;30.29;95704.13;5011065;28;20495;-56
2023/12/27 09:42:33;;;;;;;6.80;3.97;;;25.90;47.70;;;27.05;29.55;95702.53;5011321;28;20449;-57
2023/12/27 09:45:01;;;;;;;6.23;3.37;;;26.20;47.50;;;27.39;29.43;95697.66;5011445;28;20465;-57
2023/12/27 09:47:29;;;;;;;6.53;3.57;;;26.50;46.60;;;27.72;29.16;95699.97;5011341;28;20453;-57
2023/12/27 09:49:56;;;;;;;4.70;3.57;;;26.80;45.60;;;28.03;29.12;95707.06;5010372;28;20500;-58
2023/12/27 09:52:24;;;;;;;6.03;3.37;;;27.20;45.60;;;28.32;27.93;95701.03;5010990;28;20457;-56
2023/12/27 09:54:52;;;;;;;7.30;4.20;;;27.40;44.50;;;28.54;28.40;95706.75;5010977;28;20556;-56
2023/12/27 09:57:20;;;;;;;8.50;3.40;;;27.70;44.30;;;28.70;27.96;95697.16;5011029;28;20945;-57
2023/12/27 09:59:47;;;;;;;3.77;3.43;;;27.80;43.20;;;28.84;27.88;95697.75;5011046;28;20801;-57
2023/12/27 10:02:18;;;;;;;8.80;4.17;;;28.00;43.40;;;29.01;26.97;95697.88;5010229;28;20836;-57
2023/12/27 10:04:51;;;;;;;3.90;3.50;;;28.20;43.10;;;29.19;26.79;95703.16;5010407;28;20911;-55
2023/12/27 10:07:17;;;;;;;5.83;3.80;;;28.30;43.00;;;29.45;26.73;95715.41;5008830;28;20433;-58
2023/12/27 10:09:44;;;;;;;4.27;3.23;;;28.60;42.60;;;29.83;26.78;95721.38;5010627;28;20580;-59
2023/12/27 10:12:13;;;;;;;4.60;3.40;;;28.90;42.40;;;30.14;24.76;95706.50;5010309;28;20450;-56
2023/12/27 10:14:40;;;;;;;7.90;3.73;;;29.20;40.90;;;30.21;25.86;95711.78;5010797;28;20551;-58
2023/12/27 10:17:08;;;;;;;4.20;3.40;;;29.30;41.20;;;30.23;26.23;95704.22;5010340;28;21023;-59
2023/12/27 10:19:37;;;;;;;5.50;4.30;;;29.40;40.60;;;30.33;25.81;95703.56;5010444;28;20560;-58
2023/12/27 10:22:05;;;;;;;16.17;4.17;;;29.50;40.60;;;30.61;25.32;95696.47;5009422;28;20829;-57